This is the latest recevied weather packets stored in our database for station/object JH7MHZ-13. If no packets are shown the sender has not sent any weather packets the latest 10 day(s).
| Time | Temp. | Humidity | Pressure | Rain* | Wind** | Luminosity | Snow |
|---|---|---|---|---|---|---|---|
| 1788407988 | 22.22° C | 94% | 992.7 hPa | 0 mm | - | - | - |
| 1788404388 | 22.78° C | 95% | 992.7 hPa | 0 mm | - | - | - |
| 1788400787 | 21.67° C | 98% | 992.2 hPa | 0 mm | - | - | - |
| 1788397186 | 21.11° C | 98% | 993.6 hPa | 0 mm | - | - | - |
| 1788393586 | 21.11° C | 98% | 992.7 hPa | 0 mm | - | - | - |
| 1788389985 | 20.56° C | 98% | 993.4 hPa | 1.52 mm | - | - | - |
| 1788386385 | 20.56° C | 98% | 994.4 hPa | 1.02 mm | - | - | - |
| 1788382784 | 21.11° C | 98% | 994.1 hPa | 5.08 mm | - | - | - |
| 1788379184 | 21.67° C | 98% | 995.8 hPa | 13.46 mm | - | - | - |
| 1788375583 | 21.67° C | 98% | 994 hPa | 0 mm | - | - | - |
| 1788371983 | 22.22° C | 98% | 994.2 hPa | 0 mm | - | - | - |
| 1788368382 | 21.67° C | 98% | 994.2 hPa | 0 mm | - | - | - |
| 1788364781 | 21.67° C | 98% | 993.9 hPa | 0 mm | - | - | - |
| 1788361181 | 21.67° C | 98% | 994.4 hPa | 0 mm | - | - | - |
| 1788357580 | 22.22° C | 98% | 994.9 hPa | 0 mm | - | - | - |
| 1788353980 | 22.22° C | 98% | 995.4 hPa | 0 mm | - | - | - |
| 1788350379 | 22.22° C | 98% | 995.9 hPa | 0 mm | - | - | - |
| 1788346779 | 22.22° C | 98% | 996 hPa | 0 mm | - | - | - |
| 1788343178 | 22.78° C | 97% | 995.6 hPa | 0 mm | - | - | - |
| 1788339578 | 23.89° C | 95% | 995.4 hPa | 0 mm | - | - | - |
| 1788335977 | 25° C | 94% | 995.3 hPa | 0 mm | - | - | - |
| 1788332376 | 25.56° C | 90% | 995 hPa | 0 mm | - | - | - |
| 1788328776 | 26.11° C | 93% | 994.6 hPa | 0 mm | - | - | - |
| 1788325175 | 26.11° C | 93% | 994.8 hPa | 0 mm | - | - | - |
| 1788321575 | 23.89° C | 97% | 995.3 hPa | 0 mm | - | - | - |
* Rain latest hour (hover to see other rain measurements)
** Current wind speed in m/s (hover to see current wind gust speed)